Iblea — IBFK — position and weather

sailwx.info

Track history (hours):
 
Tides and Currents Weather Stations Pressure Air Temp Water Temp Dewpoint Dewpoint Depression Visibility Wind Speed Wind Dir Waves Ship Positions

Iblea

Last reported at 2014-Nov-22 14:23 UTC. Time now 2014-Nov-23 01:58 UTC.
Position N 41°20' E 002°10'.

Length 176 m; draft 10.9 m.

Type: Ship (hazmat cat C). MMSI: 247087700.

Date/timePositionNaut miles runAvg speedWind from/ knotsBaromVisibWave heightAir tempDewpointWater temp
2014-Nov-22 14:23N 41°20' E 002°10'1 1.0
2014-Nov-22 13:33N 41°19' E 002°10'2 1.7
2014-Nov-22 12:31N 41°19' E 002°12'0 0.0
2014-Nov-22 11:25N 41°19' E 002°12'0 0.0
2014-Nov-22 10:13N 41°19' E 002°12'0 0.0
2014-Nov-22 08:31N 41°19' E 002°12'0 0.0
2014-Nov-22 07:13N 41°19' E 002°12'0 0.1
2014-Nov-22 06:31N 41°19' E 002°12'0 0.0
2014-Nov-22 05:31N 41°19' E 002°12'0 0.0
2014-Nov-22 02:19N 41°19' E 002°12'0 0.1
2014-Nov-22 01:22N 41°19' E 002°12'3 0.4
2014-Nov-21 18:09N 41°20' E 002°09'1 0.0
2014-Nov-20 00:33N 41°20' E 002°10'2 0.2
2014-Nov-19 13:29N 41°19' E 002°11'1110.1
2014-Nov-19 12:23N 41°09' E 002°20'1113.2
2014-Nov-19 11:33N 41°01' E 002°28'1413.9
2014-Nov-19 10:33N 40°49' E 002°39'1413.7
2014-Nov-19 09:33N 40°39' E 002°51'1413.7
2014-Nov-19 08:33N 40°28' E 003°02'1513.5
2014-Nov-19 07:27N 40°16' E 003°14'2613.6
2014-Nov-19 05:33N 39°56' E 003°35'1413.8
2014-Nov-19 04:33N 39°45' E 003°45'34711.2
2014-Nov-17 21:29N 37°35' E 010°38'10813.2
2014-Nov-17 13:18N 37°04' E 012°48'3813.9
2014-Nov-17 10:33N 36°54' E 013°34'1413.5
2014-Nov-17 09:33N 36°51' E 013°50'1313.4
2014-Nov-17 08:33N 36°47' E 014°06'1313.4
2014-Nov-17 07:33N 36°43' E 014°22'1313.3
2014-Nov-17 06:33N 36°40' E 014°38'1614.0
2014-Nov-17 05:26N 36°36' E 014°57'41312.8
2014-Nov-15 21:05N 36°50' E 023°33'3413.4
2014-Nov-15 18:33N 37°19' E 023°55'1413.6
2014-Nov-15 17:32N 37°32' E 024°03'1613.9
2014-Nov-15 16:21N 37°45' E 024°15'1213.7
2014-Nov-15 15:28N 37°52' E 024°28'2613.5
2014-Nov-15 13:33N 38°13' E 024°46'  
Track history (hours):
 
Tides and Currents Weather Stations Pressure Air Temp Water Temp Dewpoint Dewpoint Depression Visibility Wind Speed Wind Dir Waves Ship Positions

Iblea

Last reported at 2014-Nov-22 14:23 UTC. Time now 2014-Nov-23 01:58 UTC.
Position N 41°20' E 002°10'.

Length 176 m; draft 10.9 m.

Type: Ship (hazmat cat C). MMSI: 247087700.

Date/timePositionNaut miles runAvg speedWind from/ knotsBaromVisibWave heightAir tempDewpointWater temp
2014-Nov-22 14:23N 41°20' E 002°10'1 1.0
2014-Nov-22 13:33N 41°19' E 002°10'2 1.7
2014-Nov-22 12:31N 41°19' E 002°12'0 0.0
2014-Nov-22 11:25N 41°19' E 002°12'0 0.0
2014-Nov-22 10:13N 41°19' E 002°12'0 0.0
2014-Nov-22 08:31N 41°19' E 002°12'0 0.0
2014-Nov-22 07:13N 41°19' E 002°12'0 0.1
2014-Nov-22 06:31N 41°19' E 002°12'0 0.0
2014-Nov-22 05:31N 41°19' E 002°12'0 0.0
2014-Nov-22 02:19N 41°19' E 002°12'0 0.1
2014-Nov-22 01:22N 41°19' E 002°12'3 0.4
2014-Nov-21 18:09N 41°20' E 002°09'1 0.0
2014-Nov-20 00:33N 41°20' E 002°10'2 0.2
2014-Nov-19 13:29N 41°19' E 002°11'1110.1
2014-Nov-19 12:23N 41°09' E 002°20'1113.2
2014-Nov-19 11:33N 41°01' E 002°28'1413.9
2014-Nov-19 10:33N 40°49' E 002°39'1413.7
2014-Nov-19 09:33N 40°39' E 002°51'1413.7
2014-Nov-19 08:33N 40°28' E 003°02'1513.5
2014-Nov-19 07:27N 40°16' E 003°14'2613.6
2014-Nov-19 05:33N 39°56' E 003°35'1413.8
2014-Nov-19 04:33N 39°45' E 003°45'34711.2
2014-Nov-17 21:29N 37°35' E 010°38'10813.2
2014-Nov-17 13:18N 37°04' E 012°48'3813.9
2014-Nov-17 10:33N 36°54' E 013°34'1413.5
2014-Nov-17 09:33N 36°51' E 013°50'1313.4
2014-Nov-17 08:33N 36°47' E 014°06'1313.4
2014-Nov-17 07:33N 36°43' E 014°22'1313.3
2014-Nov-17 06:33N 36°40' E 014°38'1614.0
2014-Nov-17 05:26N 36°36' E 014°57'41312.8
2014-Nov-15 21:05N 36°50' E 023°33'3413.4
2014-Nov-15 18:33N 37°19' E 023°55'1413.6
2014-Nov-15 17:32N 37°32' E 024°03'1613.9
2014-Nov-15 16:21N 37°45' E 024°15'1213.7
2014-Nov-15 15:28N 37°52' E 024°28'2613.5
2014-Nov-15 13:33N 38°13' E 024°46'  

Dump ship's entire track history